sensor_id;sensor_type;location;lat;lon;timestamp;P1;durP1;ratioP1;P2;durP2;ratioP2
5912;SDS011;2982;42.684;23.356;2023-02-15T00:02:22;41.90;;;24.03;;
5912;SDS011;2982;42.684;23.356;2023-02-15T00:04:48;38.53;;;23.90;;
5912;SDS011;2982;42.684;23.356;2023-02-15T00:07:14;33.83;;;19.53;;
5912;SDS011;2982;42.684;23.356;2023-02-15T00:09:40;40.77;;;23.00;;
5912;SDS011;2982;42.684;23.356;2023-02-15T00:12:05;28.27;;;18.77;;
5912;SDS011;2982;42.684;23.356;2023-02-15T00:14:31;41.17;;;22.03;;
5912;SDS011;2982;42.684;23.356;2023-02-15T00:16:56;44.53;;;23.77;;
5912;SDS011;2982;42.684;23.356;2023-02-15T00:19:21;40.30;;;21.53;;
5912;SDS011;2982;42.684;23.356;2023-02-15T00:21:47;40.90;;;22.50;;
5912;SDS011;2982;42.684;23.356;2023-02-15T00:24:14;36.80;;;22.37;;
5912;SDS011;2982;42.684;23.356;2023-02-15T00:26:41;40.97;;;21.63;;
5912;SDS011;2982;42.684;23.356;2023-02-15T00:29:07;37.03;;;22.47;;
5912;SDS011;2982;42.684;23.356;2023-02-15T00:31:34;40.37;;;22.63;;
5912;SDS011;2982;42.684;23.356;2023-02-15T00:34:22;37.67;;;21.77;;
5912;SDS011;2982;42.684;23.356;2023-02-15T00:36:47;37.40;;;22.47;;
5912;SDS011;2982;42.684;23.356;2023-02-15T00:39:13;40.17;;;21.70;;
5912;SDS011;2982;42.684;23.356;2023-02-15T00:41:39;36.23;;;22.10;;
5912;SDS011;2982;42.684;23.356;2023-02-15T00:44:05;42.53;;;24.40;;
5912;SDS011;2982;42.684;23.356;2023-02-15T00:46:31;33.23;;;20.67;;
5912;SDS011;2982;42.684;23.356;2023-02-15T00:48:56;35.17;;;19.17;;
5912;SDS011;2982;42.684;23.356;2023-02-15T00:51:22;34.57;;;18.60;;
5912;SDS011;2982;42.684;23.356;2023-02-15T00:53:47;38.90;;;22.73;;
5912;SDS011;2982;42.684;23.356;2023-02-15T00:56:13;35.00;;;22.23;;
5912;SDS011;2982;42.684;23.356;2023-02-15T00:58:38;39.73;;;22.37;;
5912;SDS011;2982;42.684;23.356;2023-02-15T01:01:05;35.93;;;19.57;;
5912;SDS011;2982;42.684;23.356;2023-02-15T01:03:32;39.30;;;23.17;;
5912;SDS011;2982;42.684;23.356;2023-02-15T01:05:58;37.03;;;23.43;;
5912;SDS011;2982;42.684;23.356;2023-02-15T01:08:23;38.30;;;22.77;;
5912;SDS011;2982;42.684;23.356;2023-02-15T01:10:48;34.80;;;21.97;;
5912;SDS011;2982;42.684;23.356;2023-02-15T01:13:14;36.67;;;21.00;;
5912;SDS011;2982;42.684;23.356;2023-02-15T01:15:40;35.73;;;21.60;;
5912;SDS011;2982;42.684;23.356;2023-02-15T01:18:06;34.50;;;19.80;;
5912;SDS011;2982;42.684;23.356;2023-02-15T01:20:33;33.53;;;20.77;;
5912;SDS011;2982;42.684;23.356;2023-02-15T01:23:00;40.07;;;22.70;;
5912;SDS011;2982;42.684;23.356;2023-02-15T01:25:25;37.77;;;22.17;;
5912;SDS011;2982;42.684;23.356;2023-02-15T01:27:51;35.10;;;20.57;;
5912;SDS011;2982;42.684;23.356;2023-02-15T01:30:16;35.57;;;20.27;;
5912;SDS011;2982;42.684;23.356;2023-02-15T01:32:42;38.30;;;19.47;;
5912;SDS011;2982;42.684;23.356;2023-02-15T01:35:07;41.23;;;21.77;;
5912;SDS011;2982;42.684;23.356;2023-02-15T01:37:34;37.40;;;22.90;;
5912;SDS011;2982;42.684;23.356;2023-02-15T01:40:00;31.67;;;19.23;;
5912;SDS011;2982;42.684;23.356;2023-02-15T01:42:28;32.37;;;20.07;;
5912;SDS011;2982;42.684;23.356;2023-02-15T01:44:55;39.90;;;23.90;;
5912;SDS011;2982;42.684;23.356;2023-02-15T01:47:38;36.83;;;21.90;;
5912;SDS011;2982;42.684;23.356;2023-02-15T01:50:10;35.20;;;21.37;;
5912;SDS011;2982;42.684;23.356;2023-02-15T01:52:44;37.93;;;22.77;;
5912;SDS011;2982;42.684;23.356;2023-02-15T01:55:19;34.53;;;21.37;;
5912;SDS011;2982;42.684;23.356;2023-02-15T01:57:46;38.13;;;21.80;;
5912;SDS011;2982;42.684;23.356;2023-02-15T02:00:12;39.20;;;22.27;;
5912;SDS011;2982;42.684;23.356;2023-02-15T02:02:39;33.47;;;18.83;;
5912;SDS011;2982;42.684;23.356;2023-02-15T02:05:07;38.07;;;20.47;;
5912;SDS011;2982;42.684;23.356;2023-02-15T02:07:33;33.90;;;19.57;;
5912;SDS011;2982;42.684;23.356;2023-02-15T02:10:03;30.63;;;18.43;;
5912;SDS011;2982;42.684;23.356;2023-02-15T02:12:29;35.70;;;22.37;;
5912;SDS011;2982;42.684;23.356;2023-02-15T02:14:55;36.60;;;21.17;;
5912;SDS011;2982;42.684;23.356;2023-02-15T02:17:34;37.10;;;21.70;;
5912;SDS011;2982;42.684;23.356;2023-02-15T02:23:16;35.90;;;20.40;;
5912;SDS011;2982;42.684;23.356;2023-02-15T02:37:04;31.63;;;19.90;;
5912;SDS011;2982;42.684;23.356;2023-02-15T02:42:16;34.73;;;20.97;;
5912;SDS011;2982;42.684;23.356;2023-02-15T02:44:51;38.60;;;22.00;;
5912;SDS011;2982;42.684;23.356;2023-02-15T02:47:32;32.80;;;20.03;;
5912;SDS011;2982;42.684;23.356;2023-02-15T02:50:13;32.00;;;21.03;;
5912;SDS011;2982;42.684;23.356;2023-02-15T02:52:44;32.37;;;20.30;;
5912;SDS011;2982;42.684;23.356;2023-02-15T02:55:16;38.40;;;21.43;;
5912;SDS011;2982;42.684;23.356;2023-02-15T02:58:33;32.13;;;18.90;;
5912;SDS011;2982;42.684;23.356;2023-02-15T03:00:40;35.23;;;21.13;;
5912;SDS011;2982;42.684;23.356;2023-02-15T03:03:27;35.37;;;20.97;;
5912;SDS011;2982;42.684;23.356;2023-02-15T03:06:07;33.50;;;17.87;;
5912;SDS011;2982;42.684;23.356;2023-02-15T03:08:41;34.10;;;21.23;;
5912;SDS011;2982;42.684;23.356;2023-02-15T03:11:10;28.30;;;17.27;;
5912;SDS011;2982;42.684;23.356;2023-02-15T03:13:36;30.73;;;19.57;;
5912;SDS011;2982;42.684;23.356;2023-02-15T03:16:02;34.83;;;19.80;;
5912;SDS011;2982;42.684;23.356;2023-02-15T03:18:33;33.40;;;19.40;;
5912;SDS011;2982;42.684;23.356;2023-02-15T03:21:03;32.47;;;19.87;;
5912;SDS011;2982;42.684;23.356;2023-02-15T03:23:32;33.93;;;20.93;;
5912;SDS011;2982;42.684;23.356;2023-02-15T03:26:00;22.23;;;14.33;;
5912;SDS011;2982;42.684;23.356;2023-02-15T03:28:46;35.07;;;20.30;;
5912;SDS011;2982;42.684;23.356;2023-02-15T03:31:14;30.20;;;18.73;;
5912;SDS011;2982;42.684;23.356;2023-02-15T03:33:44;28.53;;;15.90;;
5912;SDS011;2982;42.684;23.356;2023-02-15T03:36:21;31.63;;;19.63;;
5912;SDS011;2982;42.684;23.356;2023-02-15T03:39:14;29.77;;;17.40;;
5912;SDS011;2982;42.684;23.356;2023-02-15T03:41:45;32.60;;;19.77;;
5912;SDS011;2982;42.684;23.356;2023-02-15T03:44:32;21.93;;;14.03;;
5912;SDS011;2982;42.684;23.356;2023-02-15T03:47:27;26.87;;;16.53;;
5912;SDS011;2982;42.684;23.356;2023-02-15T03:52:34;28.63;;;18.03;;
5912;SDS011;2982;42.684;23.356;2023-02-15T03:55:01;21.70;;;15.77;;
5912;SDS011;2982;42.684;23.356;2023-02-15T03:57:27;30.50;;;17.77;;
5912;SDS011;2982;42.684;23.356;2023-02-15T03:59:53;30.97;;;19.13;;
5912;SDS011;2982;42.684;23.356;2023-02-15T04:02:22;29.00;;;16.47;;
5912;SDS011;2982;42.684;23.356;2023-02-15T04:04:51;26.43;;;17.80;;
5912;SDS011;2982;42.684;23.356;2023-02-15T04:07:17;33.43;;;19.93;;
5912;SDS011;2982;42.684;23.356;2023-02-15T04:09:42;24.13;;;16.13;;
5912;SDS011;2982;42.684;23.356;2023-02-15T04:12:07;27.17;;;17.30;;
5912;SDS011;2982;42.684;23.356;2023-02-15T04:14:33;29.00;;;17.23;;
5912;SDS011;2982;42.684;23.356;2023-02-15T04:16:58;32.83;;;19.40;;
5912;SDS011;2982;42.684;23.356;2023-02-15T04:19:23;32.83;;;18.13;;
5912;SDS011;2982;42.684;23.356;2023-02-15T04:21:49;30.73;;;18.20;;
5912;SDS011;2982;42.684;23.356;2023-02-15T04:24:14;26.40;;;16.47;;
5912;SDS011;2982;42.684;23.356;2023-02-15T04:26:40;30.50;;;19.57;;
5912;SDS011;2982;42.684;23.356;2023-02-15T04:29:05;30.63;;;18.97;;
5912;SDS011;2982;42.684;23.356;2023-02-15T04:31:30;27.10;;;18.03;;
5912;SDS011;2982;42.684;23.356;2023-02-15T04:33:56;35.43;;;20.00;;
5912;SDS011;2982;42.684;23.356;2023-02-15T04:36:21;33.17;;;19.57;;
5912;SDS011;2982;42.684;23.356;2023-02-15T04:38:46;32.87;;;20.30;;
5912;SDS011;2982;42.684;23.356;2023-02-15T04:41:11;32.63;;;19.87;;
5912;SDS011;2982;42.684;23.356;2023-02-15T04:43:37;29.43;;;18.13;;
5912;SDS011;2982;42.684;23.356;2023-02-15T04:46:02;29.30;;;18.87;;
5912;SDS011;2982;42.684;23.356;2023-02-15T04:48:27;31.27;;;19.47;;
5912;SDS011;2982;42.684;23.356;2023-02-15T04:50:53;19.77;;;13.17;;
5912;SDS011;2982;42.684;23.356;2023-02-15T04:53:18;30.37;;;19.90;;
5912;SDS011;2982;42.684;23.356;2023-02-15T04:55:43;34.50;;;19.40;;
5912;SDS011;2982;42.684;23.356;2023-02-15T04:58:08;30.47;;;20.43;;
5912;SDS011;2982;42.684;23.356;2023-02-15T05:00:34;30.47;;;19.63;;
5912;SDS011;2982;42.684;23.356;2023-02-15T05:02:59;34.30;;;20.83;;
5912;SDS011;2982;42.684;23.356;2023-02-15T05:05:24;27.17;;;18.10;;
5912;SDS011;2982;42.684;23.356;2023-02-15T05:07:50;34.50;;;18.87;;
5912;SDS011;2982;42.684;23.356;2023-02-15T05:10:15;21.40;;;14.10;;
5912;SDS011;2982;42.684;23.356;2023-02-15T05:12:40;28.77;;;18.00;;
5912;SDS011;2982;42.684;23.356;2023-02-15T05:15:06;26.60;;;16.93;;
5912;SDS011;2982;42.684;23.356;2023-02-15T05:17:31;35.10;;;20.13;;
5912;SDS011;2982;42.684;23.356;2023-02-15T05:19:57;30.20;;;20.07;;
5912;SDS011;2982;42.684;23.356;2023-02-15T05:22:22;34.77;;;20.13;;
5912;SDS011;2982;42.684;23.356;2023-02-15T05:24:47;32.53;;;18.83;;
5912;SDS011;2982;42.684;23.356;2023-02-15T05:27:12;27.47;;;18.93;;
5912;SDS011;2982;42.684;23.356;2023-02-15T05:29:38;29.93;;;18.57;;
5912;SDS011;2982;42.684;23.356;2023-02-15T05:32:03;30.77;;;19.37;;
5912;SDS011;2982;42.684;23.356;2023-02-15T05:34:28;33.87;;;18.23;;
5912;SDS011;2982;42.684;23.356;2023-02-15T05:36:54;31.43;;;17.57;;
5912;SDS011;2982;42.684;23.356;2023-02-15T05:39:19;30.57;;;20.10;;
5912;SDS011;2982;42.684;23.356;2023-02-15T05:41:44;31.50;;;18.27;;
5912;SDS011;2982;42.684;23.356;2023-02-15T05:44:09;34.93;;;19.13;;
5912;SDS011;2982;42.684;23.356;2023-02-15T05:46:35;36.70;;;20.17;;
5912;SDS011;2982;42.684;23.356;2023-02-15T05:49:00;34.80;;;17.73;;
5912;SDS011;2982;42.684;23.356;2023-02-15T05:51:25;24.10;;;17.93;;
5912;SDS011;2982;42.684;23.356;2023-02-15T05:53:50;35.30;;;20.27;;
5912;SDS011;2982;42.684;23.356;2023-02-15T05:56:16;32.20;;;17.77;;
5912;SDS011;2982;42.684;23.356;2023-02-15T05:58:41;28.73;;;18.50;;
5912;SDS011;2982;42.684;23.356;2023-02-15T06:01:10;31.27;;;19.60;;
5912;SDS011;2982;42.684;23.356;2023-02-15T06:03:38;31.23;;;18.03;;
5912;SDS011;2982;42.684;23.356;2023-02-15T06:06:03;24.87;;;16.23;;
5912;SDS011;2982;42.684;23.356;2023-02-15T06:08:29;26.40;;;15.70;;
5912;SDS011;2982;42.684;23.356;2023-02-15T06:10:55;32.47;;;18.30;;
5912;SDS011;2982;42.684;23.356;2023-02-15T06:13:20;30.13;;;18.97;;
5912;SDS011;2982;42.684;23.356;2023-02-15T06:15:45;29.77;;;18.33;;
5912;SDS011;2982;42.684;23.356;2023-02-15T06:18:11;28.23;;;17.47;;
5912;SDS011;2982;42.684;23.356;2023-02-15T06:20:36;23.33;;;16.73;;
5912;SDS011;2982;42.684;23.356;2023-02-15T06:23:01;31.47;;;17.97;;
5912;SDS011;2982;42.684;23.356;2023-02-15T06:25:26;26.33;;;18.00;;
5912;SDS011;2982;42.684;23.356;2023-02-15T06:27:52;28.17;;;19.10;;
5912;SDS011;2982;42.684;23.356;2023-02-15T06:30:17;26.70;;;17.53;;
5912;SDS011;2982;42.684;23.356;2023-02-15T06:32:42;32.57;;;20.13;;
5912;SDS011;2982;42.684;23.356;2023-02-15T06:35:08;31.30;;;20.23;;
5912;SDS011;2982;42.684;23.356;2023-02-15T06:37:33;26.47;;;17.63;;
5912;SDS011;2982;42.684;23.356;2023-02-15T06:39:58;25.07;;;15.90;;
5912;SDS011;2982;42.684;23.356;2023-02-15T06:42:24;24.77;;;16.57;;
5912;SDS011;2982;42.684;23.356;2023-02-15T06:44:49;28.23;;;16.87;;
5912;SDS011;2982;42.684;23.356;2023-02-15T06:47:15;28.77;;;18.10;;
5912;SDS011;2982;42.684;23.356;2023-02-15T06:49:40;27.07;;;18.30;;
5912;SDS011;2982;42.684;23.356;2023-02-15T06:52:05;23.67;;;16.03;;
5912;SDS011;2982;42.684;23.356;2023-02-15T06:54:31;29.40;;;16.37;;
5912;SDS011;2982;42.684;23.356;2023-02-15T06:56:56;27.53;;;17.47;;
5912;SDS011;2982;42.684;23.356;2023-02-15T06:59:21;30.97;;;17.53;;
5912;SDS011;2982;42.684;23.356;2023-02-15T07:01:47;23.23;;;16.60;;
5912;SDS011;2982;42.684;23.356;2023-02-15T07:04:12;23.33;;;15.67;;
5912;SDS011;2982;42.684;23.356;2023-02-15T07:06:38;26.63;;;17.27;;
5912;SDS011;2982;42.684;23.356;2023-02-15T07:09:04;24.30;;;15.77;;
5912;SDS011;2982;42.684;23.356;2023-02-15T07:11:29;27.07;;;16.97;;
5912;SDS011;2982;42.684;23.356;2023-02-15T07:13:55;23.27;;;13.90;;
5912;SDS011;2982;42.684;23.356;2023-02-15T07:16:20;28.30;;;18.03;;
5912;SDS011;2982;42.684;23.356;2023-02-15T07:18:46;21.97;;;14.30;;
5912;SDS011;2982;42.684;23.356;2023-02-15T07:21:11;23.17;;;14.60;;
5912;SDS011;2982;42.684;23.356;2023-02-15T07:23:37;28.30;;;16.70;;
5912;SDS011;2982;42.684;23.356;2023-02-15T07:26:04;26.70;;;14.73;;
5912;SDS011;2982;42.684;23.356;2023-02-15T07:28:30;21.43;;;13.73;;
5912;SDS011;2982;42.684;23.356;2023-02-15T07:30:56;20.83;;;14.60;;
5912;SDS011;2982;42.684;23.356;2023-02-15T07:33:24;18.50;;;12.37;;
5912;SDS011;2982;42.684;23.356;2023-02-15T07:35:56;28.17;;;16.17;;
5912;SDS011;2982;42.684;23.356;2023-02-15T07:38:22;23.47;;;15.90;;
5912;SDS011;2982;42.684;23.356;2023-02-15T07:40:47;23.70;;;16.57;;
5912;SDS011;2982;42.684;23.356;2023-02-15T07:43:13;23.33;;;14.17;;
5912;SDS011;2982;42.684;23.356;2023-02-15T07:45:38;26.43;;;16.47;;
5912;SDS011;2982;42.684;23.356;2023-02-15T07:48:04;27.77;;;15.53;;
5912;SDS011;2982;42.684;23.356;2023-02-15T07:50:30;18.90;;;13.47;;
5912;SDS011;2982;42.684;23.356;2023-02-15T07:52:57;23.23;;;13.60;;
5912;SDS011;2982;42.684;23.356;2023-02-15T07:55:22;16.63;;;12.33;;
5912;SDS011;2982;42.684;23.356;2023-02-15T07:57:49;19.47;;;14.57;;
5912;SDS011;2982;42.684;23.356;2023-02-15T08:00:15;21.20;;;14.53;;
5912;SDS011;2982;42.684;23.356;2023-02-15T08:02:42;18.90;;;13.63;;
5912;SDS011;2982;42.684;23.356;2023-02-15T08:05:12;21.67;;;15.00;;
5912;SDS011;2982;42.684;23.356;2023-02-15T08:07:38;19.73;;;13.40;;
5912;SDS011;2982;42.684;23.356;2023-02-15T08:10:03;19.70;;;14.00;;
5912;SDS011;2982;42.684;23.356;2023-02-15T08:12:29;19.07;;;13.67;;
5912;SDS011;2982;42.684;23.356;2023-02-15T08:14:54;22.17;;;15.27;;
5912;SDS011;2982;42.684;23.356;2023-02-15T08:17:19;17.17;;;13.13;;
5912;SDS011;2982;42.684;23.356;2023-02-15T08:19:45;20.13;;;15.10;;
5912;SDS011;2982;42.684;23.356;2023-02-15T08:22:11;20.67;;;14.10;;
5912;SDS011;2982;42.684;23.356;2023-02-15T08:24:38;24.13;;;15.90;;
5912;SDS011;2982;42.684;23.356;2023-02-15T08:27:04;23.63;;;13.33;;
5912;SDS011;2982;42.684;23.356;2023-02-15T08:29:31;28.03;;;14.20;;
5912;SDS011;2982;42.684;23.356;2023-02-15T08:31:58;18.43;;;12.20;;
5912;SDS011;2982;42.684;23.356;2023-02-15T08:34:35;20.80;;;13.60;;
5912;SDS011;2982;42.684;23.356;2023-02-15T08:37:05;23.83;;;13.37;;
5912;SDS011;2982;42.684;23.356;2023-02-15T08:39:31;17.07;;;12.73;;
5912;SDS011;2982;42.684;23.356;2023-02-15T08:41:56;15.53;;;9.90;;
5912;SDS011;2982;42.684;23.356;2023-02-15T08:44:21;18.53;;;13.53;;
5912;SDS011;2982;42.684;23.356;2023-02-15T08:46:47;15.33;;;9.53;;
5912;SDS011;2982;42.684;23.356;2023-02-15T08:49:16;22.63;;;13.80;;
5912;SDS011;2982;42.684;23.356;2023-02-15T08:51:43;19.87;;;14.20;;
5912;SDS011;2982;42.684;23.356;2023-02-15T08:54:10;20.03;;;14.17;;
5912;SDS011;2982;42.684;23.356;2023-02-15T08:56:39;19.57;;;14.37;;
5912;SDS011;2982;42.684;23.356;2023-02-15T08:59:06;20.83;;;14.37;;
5912;SDS011;2982;42.684;23.356;2023-02-15T09:01:36;22.77;;;13.37;;
5912;SDS011;2982;42.684;23.356;2023-02-15T09:04:02;18.90;;;13.70;;
5912;SDS011;2982;42.684;23.356;2023-02-15T09:06:29;19.93;;;12.13;;
5912;SDS011;2982;42.684;23.356;2023-02-15T09:08:55;22.40;;;12.83;;
5912;SDS011;2982;42.684;23.356;2023-02-15T09:11:25;19.23;;;12.27;;
5912;SDS011;2982;42.684;23.356;2023-02-15T09:13:53;17.17;;;12.37;;
5912;SDS011;2982;42.684;23.356;2023-02-15T09:16:21;15.63;;;13.13;;
5912;SDS011;2982;42.684;23.356;2023-02-15T09:18:47;18.87;;;13.37;;
5912;SDS011;2982;42.684;23.356;2023-02-15T09:21:16;23.90;;;14.73;;
5912;SDS011;2982;42.684;23.356;2023-02-15T09:23:44;22.17;;;13.13;;
5912;SDS011;2982;42.684;23.356;2023-02-15T09:26:11;18.50;;;12.67;;
5912;SDS011;2982;42.684;23.356;2023-02-15T09:28:39;17.60;;;11.50;;
5912;SDS011;2982;42.684;23.356;2023-02-15T09:31:26;15.20;;;11.83;;
5912;SDS011;2982;42.684;23.356;2023-02-15T09:33:52;15.10;;;11.83;;
5912;SDS011;2982;42.684;23.356;2023-02-15T09:36:19;18.00;;;14.17;;
5912;SDS011;2982;42.684;23.356;2023-02-15T09:38:47;24.20;;;14.13;;
5912;SDS011;2982;42.684;23.356;2023-02-15T10:03:51;19.30;;;12.77;;
5912;SDS011;2982;42.684;23.356;2023-02-15T10:18:02;16.93;;;12.53;;
5912;SDS011;2982;42.684;23.356;2023-02-15T10:25:44;15.57;;;12.37;;
5912;SDS011;2982;42.684;23.356;2023-02-15T10:28:20;16.00;;;13.00;;
5912;SDS011;2982;42.684;23.356;2023-02-15T10:30:52;16.87;;;13.50;;
5912;SDS011;2982;42.684;23.356;2023-02-15T10:33:39;18.07;;;12.73;;
5912;SDS011;2982;42.684;23.356;2023-02-15T10:50:45;18.37;;;13.43;;
5912;SDS011;2982;42.684;23.356;2023-02-15T11:06:39;20.13;;;14.60;;
5912;SDS011;2982;42.684;23.356;2023-02-15T11:09:12;19.53;;;14.33;;
5912;SDS011;2982;42.684;23.356;2023-02-15T11:11:39;15.00;;;12.20;;
5912;SDS011;2982;42.684;23.356;2023-02-15T11:14:17;15.97;;;12.23;;
5912;SDS011;2982;42.684;23.356;2023-02-15T11:16:57;17.87;;;12.90;;
5912;SDS011;2982;42.684;23.356;2023-02-15T11:19:34;18.40;;;12.63;;
5912;SDS011;2982;42.684;23.356;2023-02-15T11:22:04;18.43;;;15.10;;
5912;SDS011;2982;42.684;23.356;2023-02-15T11:24:31;23.53;;;15.20;;
5912;SDS011;2982;42.684;23.356;2023-02-15T11:27:16;25.37;;;16.53;;
5912;SDS011;2982;42.684;23.356;2023-02-15T11:32:32;23.17;;;15.87;;
5912;SDS011;2982;42.684;23.356;2023-02-15T11:43:11;15.07;;;12.63;;
5912;SDS011;2982;42.684;23.356;2023-02-15T11:45:52;20.37;;;14.40;;
5912;SDS011;2982;42.684;23.356;2023-02-15T11:48:17;17.60;;;13.07;;
5912;SDS011;2982;42.684;23.356;2023-02-15T11:50:43;17.10;;;12.83;;
5912;SDS011;2982;42.684;23.356;2023-02-15T11:53:18;24.07;;;14.43;;
5912;SDS011;2982;42.684;23.356;2023-02-15T11:55:47;19.33;;;13.70;;
5912;SDS011;2982;42.684;23.356;2023-02-15T11:58:31;18.93;;;12.73;;
5912;SDS011;2982;42.684;23.356;2023-02-15T12:03:47;21.07;;;12.83;;
5912;SDS011;2982;42.684;23.356;2023-02-15T12:06:23;16.37;;;12.63;;
5912;SDS011;2982;42.684;23.356;2023-02-15T12:11:33;22.33;;;14.87;;
5912;SDS011;2982;42.684;23.356;2023-02-15T12:14:02;17.20;;;11.23;;
5912;SDS011;2982;42.684;23.356;2023-02-15T12:16:31;22.20;;;15.97;;
5912;SDS011;2982;42.684;23.356;2023-02-15T12:19:04;25.53;;;14.10;;
5912;SDS011;2982;42.684;23.356;2023-02-15T12:21:30;22.50;;;13.47;;
5912;SDS011;2982;42.684;23.356;2023-02-15T12:26:39;21.87;;;15.50;;
5912;SDS011;2982;42.684;23.356;2023-02-15T12:29:27;23.50;;;15.23;;
5912;SDS011;2982;42.684;23.356;2023-02-15T12:31:52;23.63;;;15.33;;
5912;SDS011;2982;42.684;23.356;2023-02-15T12:34:25;20.40;;;14.47;;
5912;SDS011;2982;42.684;23.356;2023-02-15T12:37:01;13.53;;;10.50;;
5912;SDS011;2982;42.684;23.356;2023-02-15T12:39:35;20.57;;;14.50;;
5912;SDS011;2982;42.684;23.356;2023-02-15T12:42:02;15.97;;;13.13;;
5912;SDS011;2982;42.684;23.356;2023-02-15T12:44:31;16.60;;;12.97;;
5912;SDS011;2982;42.684;23.356;2023-02-15T12:47:04;18.77;;;14.23;;
5912;SDS011;2982;42.684;23.356;2023-02-15T12:49:38;21.70;;;14.57;;
5912;SDS011;2982;42.684;23.356;2023-02-15T12:52:05;21.27;;;14.43;;
5912;SDS011;2982;42.684;23.356;2023-02-15T12:54:42;21.50;;;13.57;;
5912;SDS011;2982;42.684;23.356;2023-02-15T12:57:20;13.30;;;11.10;;
5912;SDS011;2982;42.684;23.356;2023-02-15T12:59:52;18.80;;;12.10;;
5912;SDS011;2982;42.684;23.356;2023-02-15T13:02:27;15.63;;;11.97;;
5912;SDS011;2982;42.684;23.356;2023-02-15T13:04:56;14.10;;;11.37;;
5912;SDS011;2982;42.684;23.356;2023-02-15T13:07:29;21.07;;;13.87;;
5912;SDS011;2982;42.684;23.356;2023-02-15T13:09:55;20.30;;;15.03;;
5912;SDS011;2982;42.684;23.356;2023-02-15T13:12:23;18.97;;;13.50;;
5912;SDS011;2982;42.684;23.356;2023-02-15T13:14:50;21.00;;;15.23;;
5912;SDS011;2982;42.684;23.356;2023-02-15T13:17:17;23.77;;;15.33;;
5912;SDS011;2982;42.684;23.356;2023-02-15T13:19:47;18.60;;;13.07;;
5912;SDS011;2982;42.684;23.356;2023-02-15T13:22:17;20.80;;;13.93;;
5912;SDS011;2982;42.684;23.356;2023-02-15T13:24:48;21.13;;;14.97;;
5912;SDS011;2982;42.684;23.356;2023-02-15T13:27:18;23.93;;;14.80;;
5912;SDS011;2982;42.684;23.356;2023-02-15T13:29:49;23.27;;;15.70;;
5912;SDS011;2982;42.684;23.356;2023-02-15T13:32:28;22.03;;;16.70;;
5912;SDS011;2982;42.684;23.356;2023-02-15T13:34:58;20.77;;;14.63;;
5912;SDS011;2982;42.684;23.356;2023-02-15T13:37:31;18.07;;;14.23;;
5912;SDS011;2982;42.684;23.356;2023-02-15T13:42:39;22.60;;;14.93;;
5912;SDS011;2982;42.684;23.356;2023-02-15T13:45:20;16.73;;;12.63;;
5912;SDS011;2982;42.684;23.356;2023-02-15T13:55:52;23.23;;;15.23;;
5912;SDS011;2982;42.684;23.356;2023-02-15T13:58:46;21.67;;;12.83;;
5912;SDS011;2982;42.684;23.356;2023-02-15T14:25:50;18.10;;;14.67;;
5912;SDS011;2982;42.684;23.356;2023-02-15T14:28:35;16.93;;;12.63;;
5912;SDS011;2982;42.684;23.356;2023-02-15T14:31:09;23.87;;;16.23;;
5912;SDS011;2982;42.684;23.356;2023-02-15T14:33:37;23.33;;;16.57;;
5912;SDS011;2982;42.684;23.356;2023-02-15T14:36:05;24.37;;;17.53;;
5912;SDS011;2982;42.684;23.356;2023-02-15T14:38:43;22.83;;;14.83;;
5912;SDS011;2982;42.684;23.356;2023-02-15T14:44:22;22.90;;;15.93;;
5912;SDS011;2982;42.684;23.356;2023-02-15T14:46:56;23.83;;;14.33;;
5912;SDS011;2982;42.684;23.356;2023-02-15T14:49:31;20.57;;;15.30;;
5912;SDS011;2982;42.684;23.356;2023-02-15T14:52:04;23.87;;;15.57;;
5912;SDS011;2982;42.684;23.356;2023-02-15T15:02:22;21.70;;;14.60;;
5912;SDS011;2982;42.684;23.356;2023-02-15T15:05:01;22.73;;;15.03;;
5912;SDS011;2982;42.684;23.356;2023-02-15T15:07:47;22.07;;;15.33;;
5912;SDS011;2982;42.684;23.356;2023-02-15T15:10:33;22.93;;;15.60;;
5912;SDS011;2982;42.684;23.356;2023-02-15T15:15:56;24.43;;;16.67;;
5912;SDS011;2982;42.684;23.356;2023-02-15T15:18:42;20.77;;;13.97;;
5912;SDS011;2982;42.684;23.356;2023-02-15T15:21:42;21.80;;;15.40;;
5912;SDS011;2982;42.684;23.356;2023-02-15T15:30:01;20.83;;;14.87;;
5912;SDS011;2982;42.684;23.356;2023-02-15T15:32:27;25.33;;;17.33;;
5912;SDS011;2982;42.684;23.356;2023-02-15T15:37:46;25.50;;;15.53;;
5912;SDS011;2982;42.684;23.356;2023-02-15T15:40:38;20.43;;;14.53;;
5912;SDS011;2982;42.684;23.356;2023-02-15T15:46:17;26.17;;;14.83;;
5912;SDS011;2982;42.684;23.356;2023-02-15T15:49:02;24.27;;;17.23;;
5912;SDS011;2982;42.684;23.356;2023-02-15T15:51:39;28.73;;;18.33;;
5912;SDS011;2982;42.684;23.356;2023-02-15T15:54:11;24.33;;;16.87;;
5912;SDS011;2982;42.684;23.356;2023-02-15T15:56:40;23.50;;;15.87;;
5912;SDS011;2982;42.684;23.356;2023-02-15T15:59:13;24.80;;;17.70;;
5912;SDS011;2982;42.684;23.356;2023-02-15T16:01:44;25.73;;;16.00;;
5912;SDS011;2982;42.684;23.356;2023-02-15T16:04:21;21.67;;;14.10;;
5912;SDS011;2982;42.684;23.356;2023-02-15T16:06:49;26.83;;;17.67;;
5912;SDS011;2982;42.684;23.356;2023-02-15T16:09:24;28.07;;;17.10;;
5912;SDS011;2982;42.684;23.356;2023-02-15T16:11:52;25.10;;;16.67;;
5912;SDS011;2982;42.684;23.356;2023-02-15T16:14:36;28.10;;;17.80;;
5912;SDS011;2982;42.684;23.356;2023-02-15T16:17:04;29.90;;;17.23;;
5912;SDS011;2982;42.684;23.356;2023-02-15T16:19:37;28.10;;;18.00;;
5912;SDS011;2982;42.684;23.356;2023-02-15T16:22:07;29.27;;;18.70;;
5912;SDS011;2982;42.684;23.356;2023-02-15T16:25:02;24.60;;;16.17;;
5912;SDS011;2982;42.684;23.356;2023-02-15T16:27:41;29.33;;;19.17;;
5912;SDS011;2982;42.684;23.356;2023-02-15T16:30:25;31.90;;;17.63;;
5912;SDS011;2982;42.684;23.356;2023-02-15T16:33:11;26.37;;;18.17;;
5912;SDS011;2982;42.684;23.356;2023-02-15T16:35:39;31.40;;;17.60;;
5912;SDS011;2982;42.684;23.356;2023-02-15T16:43:53;34.30;;;20.17;;
5912;SDS011;2982;42.684;23.356;2023-02-15T16:48:53;28.33;;;19.10;;
5912;SDS011;2982;42.684;23.356;2023-02-15T16:51:29;34.43;;;20.27;;
5912;SDS011;2982;42.684;23.356;2023-02-15T16:53:59;29.53;;;18.87;;
5912;SDS011;2982;42.684;23.356;2023-02-15T16:56:32;27.80;;;19.03;;
5912;SDS011;2982;42.684;23.356;2023-02-15T16:58:59;32.87;;;19.37;;
5912;SDS011;2982;42.684;23.356;2023-02-15T17:01:27;34.37;;;20.47;;
5912;SDS011;2982;42.684;23.356;2023-02-15T17:04:40;29.63;;;18.67;;
5912;SDS011;2982;42.684;23.356;2023-02-15T17:07:05;41.50;;;21.40;;
5912;SDS011;2982;42.684;23.356;2023-02-15T17:09:48;32.53;;;20.27;;
5912;SDS011;2982;42.684;23.356;2023-02-15T17:12:35;32.87;;;20.97;;
5912;SDS011;2982;42.684;23.356;2023-02-15T17:18:32;32.13;;;20.90;;
5912;SDS011;2982;42.684;23.356;2023-02-15T17:21:10;33.03;;;20.80;;
5912;SDS011;2982;42.684;23.356;2023-02-15T17:23:42;33.93;;;20.63;;
5912;SDS011;2982;42.684;23.356;2023-02-15T17:26:11;35.17;;;20.00;;
5912;SDS011;2982;42.684;23.356;2023-02-15T17:28:47;30.03;;;20.13;;
5912;SDS011;2982;42.684;23.356;2023-02-15T17:31:16;30.37;;;19.13;;
5912;SDS011;2982;42.684;23.356;2023-02-15T17:33:43;29.77;;;18.93;;
5912;SDS011;2982;42.684;23.356;2023-02-15T17:36:11;30.03;;;19.63;;
5912;SDS011;2982;42.684;23.356;2023-02-15T17:38:39;30.27;;;18.90;;
5912;SDS011;2982;42.684;23.356;2023-02-15T17:43:53;38.97;;;23.00;;
5912;SDS011;2982;42.684;23.356;2023-02-15T17:46:18;36.80;;;22.43;;
5912;SDS011;2982;42.684;23.356;2023-02-15T17:48:45;38.77;;;22.73;;
5912;SDS011;2982;42.684;23.356;2023-02-15T17:51:13;39.10;;;21.80;;
5912;SDS011;2982;42.684;23.356;2023-02-15T17:53:40;38.60;;;22.47;;